Datos. Málaga, Centro Meteorológico

Actualizado: domingo, 26 octubre 2014 a las 00:32 hora oficial
Ind. climatológico: 6156X -  Altitud (m): 54
Latitud36° 43' 4'' N - Longitud4° 28' 54'' O -  PosiciónVer localización
MunicipioMálaga (Málaga) - Ver predicción
Registros - de
Fecha y hora oficial

 

Temp. (°C)

 

V. vien. (km/h)

 

Dir. viento

 

Racha (km/h)

 

Dir. racha

 

Prec. (mm)

 

Presión (hPa)

 

Tend. (hPa)

 

Humedad (%)

 

26/10/2014 00:00 18.8 6 9-NoroesteNoroeste 11 9-NoroesteNoroeste 0.0 1015.1 1.4 58
25/10/2014 23:00 18.8 4 9-NoroesteNoroeste 8 9-NoroesteNoroeste 0.0 1014.8 1.4 60
25/10/2014 22:00 20.5 5 2-NorteNorte 9 2-NorteNorte 0.0 1014.1 1.4 58
25/10/2014 21:00 20.8 4 2-NorteNorte 6 2-NorteNorte 0.0 1013.7 1.2 59
25/10/2014 20:00 21.4 0 1-CalmaCalma 7 6-SurSur 0.0 1013.4 1.1 59
25/10/2014 19:00 22.8 3 5-SudesteSudeste 13 6-SurSur 0.0 1012.7 0.4 54
25/10/2014 18:00 24.3 8 5-SudesteSudeste 19 5-SudesteSudeste 0.0 1012.5 -0.3 45
25/10/2014 17:00 25.4 11 5-SudesteSudeste 19 5-SudesteSudeste 0.0 1012.3 -0.9 40
25/10/2014 16:00 25.9 9 5-SudesteSudeste 17 5-SudesteSudeste 0.0 1012.3 -1.0 44
25/10/2014 15:00 25.1 11 5-SudesteSudeste 23 5-SudesteSudeste 0.0 1012.8 -0.5 53
25/10/2014 14:00 25.1 9 5-SudesteSudeste 16 5-SudesteSudeste 0.0 1013.2 -0.1 45
25/10/2014 13:00 26.4 8 5-SudesteSudeste 17 5-SudesteSudeste 0.0 1013.3 0.2 38
25/10/2014 12:00 24.8 5 7-SudoesteSudoeste 12 8-OesteOeste 0.0 1013.3 0.7 49
25/10/2014 11:00 22.2 8 8-OesteOeste 13 9-NoroesteNoroeste 0.0 1013.3 1.0 55
25/10/2014 10:00 18.4 7 9-NoroesteNoroeste 14 9-NoroesteNoroeste 0.0 1013.1 1.0 59
25/10/2014 09:00 17.2 8 9-NoroesteNoroeste 17 9-NoroesteNoroeste 0.0 1012.6 0.5 59
25/10/2014 08:00 16.4 8 9-NoroesteNoroeste 15 9-NoroesteNoroeste 0.0 1012.3 0.4 62
25/10/2014 07:00 16.7 7 9-NoroesteNoroeste 11 9-NoroesteNoroeste 0.0 1012.1 0.0 61
25/10/2014 06:00 17.1 7 9-NoroesteNoroeste 15 9-NoroesteNoroeste 0.0 1012.1 -0.1 60
25/10/2014 05:00 17.2 8 9-NoroesteNoroeste 14 9-NoroesteNoroeste 0.0 1011.9 -0.3 61
25/10/2014 04:00 16.1 3 9-NoroesteNoroeste 9 9-NoroesteNoroeste 0.0 1012.1 -0.1 67
25/10/2014 03:00 17.8 3 9-NoroesteNoroeste 10 9-NoroesteNoroeste 0.0 1012.2 -0.2 59
25/10/2014 02:00 18.6 6 9-NoroesteNoroeste 12 9-NoroesteNoroeste 0.0 1012.2 0.1 58
25/10/2014 01:00 18.5 5 9-NoroesteNoroeste 8 9-NoroesteNoroeste 0.0 1012.2 0.4 63
First Page First Page First Page Last Page
Lineas por página
Página   de  
Compartir:  
En esta página podrá acceder, en forma gráfica y en tabla, a las observaciones horarias de las últimas 24 horas, así como a los valores extremos y acumulados desde las 00 horas del día hasta la hora de actualización indicada, obtenidos en la red de estaciones de AEMET. También podrá acceder a los resúmenes diarios de estas estaciones en los últimos 7 días.

En el mapa aparecen estaciones con valor númerico y otras representadas por un punto. En las primeras, al pasar el ratón, aparece un desplegable con la información completa de la estación. Las estaciones representadas por un punto son estaciones de la red climatológica, con transmisión de datos superior a la hora, por lo que al seleccionarlas pueden no aparecer los últimos datos.

Los datos presentados han sido únicamente sometidos a controles automáticos de calidad en tiempo real, por lo que no puede garantizarse la ausencia de errores.
© AEMET. Autorizado el uso de la información y su reproducción citando a AEMET como autora de la misma.